Time;durP1;ratioP1;P1;durP2;ratioP2;P2;SDS_P1;SDS_P2;PMS_P1;PMS_P2;Temp;Humidity;BMP_temperature;BMP_pressure;BME280_temperature;BME280_humidity;BME280_pressure;Samples;Min_cycle;Max_cycle;Signal;HPM_P1;HPM_P2
2023/12/06 00:00:37;;;;;;;26.40;13.80;;;;;;;4.71;70.46;101616.75;106380;1253;68522;-80
2023/12/06 00:03:11;;;;;;;30.80;15.30;;;;;;;4.77;70.27;101622.07;106347;1254;72783;-80
2023/12/06 00:05:44;;;;;;;25.90;13.10;;;;;;;4.76;70.10;101622.20;106571;1254;61132;-81
2023/12/06 00:08:18;;;;;;;27.80;14.20;;;;;;;4.78;70.02;101626.14;106360;1254;61272;-80
2023/12/06 00:10:52;;;;;;;27.30;13.80;;;;;;;4.80;69.66;101626.27;106506;1253;73403;-80
2023/12/06 00:13:26;;;;;;;32.70;14.50;;;;;;;4.82;69.48;101625.18;106141;1254;67098;-80
2023/12/06 00:16:00;;;;;;;30.70;13.90;;;;;;;4.65;70.00;101620.51;106298;1257;72575;-80
2023/12/06 00:18:34;;;;;;;27.60;13.30;;;;;;;4.63;70.34;101622.76;106499;1254;61275;-80
2023/12/06 00:21:07;;;;;;;31.10;15.00;;;;;;;4.63;70.24;101625.14;106231;1254;61356;-81
2023/12/06 00:23:41;;;;;;;32.60;16.70;;;;;;;4.56;70.47;101628.40;106366;1253;74785;-80
2023/12/06 00:26:15;;;;;;;30.00;14.80;;;;;;;4.63;70.19;101627.30;106471;1255;69360;-80
2023/12/06 00:29:06;;;;;;;34.20;16.50;;;;;;;4.53;70.47;101626.70;106431;1253;72811;-80
2023/12/06 04:31:03;;;;;;;25.10;11.70;;;;;;;4.53;75.51;101553.31;106312;1253;61340;-79
2023/12/06 04:33:43;;;;;;;30.40;14.30;;;;;;;4.47;76.06;101556.08;106271;1253;61245;-79
2023/12/06 04:36:23;;;;;;;29.60;15.40;;;;;;;4.36;77.23;101556.69;106357;1253;72399;-80
2023/12/06 04:39:03;;;;;;;33.00;16.10;;;;;;;4.42;76.77;101555.59;106342;1253;68399;-80
2023/12/06 04:41:43;;;;;;;36.00;16.60;;;;;;;4.53;75.52;101554.60;106530;1252;71909;-79
2023/12/06 04:44:23;;;;;;;29.80;14.70;;;;;;;4.62;74.32;101556.83;106250;1254;61284;-79
2023/12/06 04:47:03;;;;;;;27.90;14.30;;;;;;;4.65;73.20;101552.66;106382;1253;60767;-79
2023/12/06 04:49:43;;;;;;;34.60;15.40;;;;;;;4.66;72.46;101550.12;106476;1253;74613;-80
2023/12/06 04:52:24;;;;;;;29.60;13.70;;;;;;;4.54;72.46;101548.15;106406;1254;68418;-80
2023/12/06 04:55:04;;;;;;;32.90;15.50;;;;;;;4.39;72.75;101543.61;109431;1252;71582;-81
2023/12/06 05:01:02;;;;;;;28.00;14.60;;;;;;;4.11;74.45;101548.31;102825;1292;600811;-79
2023/12/06 05:03:43;;;;;;;36.40;17.50;;;;;;;3.86;76.33;101556.02;105454;1266;59832;-80
2023/12/06 05:06:22;;;;;;;36.90;16.10;;;;;;;3.86;76.48;101552.83;105697;1267;60008;-80
2023/12/06 05:09:04;;;;;;;29.60;14.80;;;;;;;3.87;77.24;101544.87;105428;1267;71076;-80
2023/12/06 05:11:44;;;;;;;32.10;14.90;;;;;;;4.02;77.07;101538.17;105538;1265;68348;-80
2023/12/06 05:14:24;;;;;;;30.90;14.70;;;;;;;4.14;76.49;101539.48;105906;1260;202457;-80
2023/12/06 05:17:04;;;;;;;34.40;16.80;;;;;;;4.25;76.06;101532.65;106052;1258;60881;-80
2023/12/06 05:19:44;;;;;;;30.80;15.20;;;;;;;4.34;75.90;101536.87;105976;1262;59235;-80
2023/12/06 05:22:24;;;;;;;32.30;16.10;;;;;;;4.38;75.41;101533.61;106030;1257;72319;-80
2023/12/06 05:25:04;;;;;;;32.50;15.70;;;;;;;4.34;75.11;101528.05;106070;1257;68730;-79
2023/12/06 05:27:44;;;;;;;34.90;17.70;;;;;;;4.33;75.15;101530.09;105961;1259;70388;-80
2023/12/06 05:30:24;;;;;;;32.40;15.20;;;;;;;4.42;74.52;101534.39;105970;1257;59682;-80
2023/12/06 05:33:04;;;;;;;33.10;15.80;;;;;;;4.50;74.20;101539.11;106109;1262;59590;-80
2023/12/06 05:35:38;;;;;;;34.40;16.40;;;;;;;4.47;73.93;101535.92;106111;1257;71778;-80
2023/12/06 05:38:12;;;;;;;33.00;16.90;;;;;;;4.50;73.85;101534.95;106032;1257;68293;-80
2023/12/06 05:40:52;;;;;;;28.90;15.30;;;;;;;4.53;73.82;101534.98;105966;1261;72702;-80
2023/12/06 05:43:31;;;;;;;34.20;15.40;;;;;;;4.46;73.89;101538.45;106108;1257;59415;-80
2023/12/06 05:46:06;;;;;;;26.30;13.80;;;;;;;4.43;74.09;101539.86;106035;1257;60300;-80
2023/12/06 05:48:40;;;;;;;32.30;15.20;;;;;;;4.50;73.70;101537.71;106060;1257;71312;-79
2023/12/06 05:51:20;;;;;;;30.30;14.70;;;;;;;4.58;72.85;101538.56;106099;1258;67811;-80
2023/12/06 05:53:53;;;;;;;30.50;14.90;;;;;;;4.50;72.82;101535.16;106131;1259;73158;-80
2023/12/06 05:56:27;;;;;;;30.70;14.90;;;;;;;4.38;73.23;101535.20;106075;1260;59725;-80
2023/12/06 05:59:00;;;;;;;32.30;15.00;;;;;;;4.26;73.78;101531.56;106131;1257;59534;-79
2023/12/06 06:01:34;;;;;;;29.20;14.10;;;;;;;4.29;74.00;101536.34;106008;1260;73043;-80
2023/12/06 06:04:08;;;;;;;29.00;14.10;;;;;;;4.33;73.62;101538.33;106046;1259;68374;-80
2023/12/06 06:06:42;;;;;;;29.30;14.30;;;;;;;4.38;72.95;101538.03;106064;1260;71461;-80
2023/12/06 06:09:10;;;;;;;32.80;15.40;;;;;;;4.32;73.06;101541.52;105992;1257;61185;-80
2023/12/06 06:11:44;;;;;;;30.90;15.60;;;;;;;4.29;72.86;101549.27;106184;1260;60428;-79
2023/12/06 06:14:17;;;;;;;30.90;14.70;;;;;;;4.19;73.57;101553.66;105977;1262;72959;-80
2023/12/06 06:16:51;;;;;;;27.30;14.20;;;;;;;4.21;73.75;101551.66;106014;1259;67624;-80
2023/12/06 06:19:19;;;;;;;32.50;15.00;;;;;;;4.20;73.79;101555.75;106065;1259;72650;-80
2023/12/06 06:21:52;;;;;;;30.70;15.30;;;;;;;4.25;73.44;101556.73;105959;1262;59731;-80
2023/12/06 06:24:26;;;;;;;32.10;15.50;;;;;;;4.13;74.16;101553.80;106088;1261;59512;-80
2023/12/06 06:27:04;;;;;;;29.90;14.30;;;;;;;4.10;74.62;101554.23;106113;1257;72054;-80
2023/12/06 06:29:32;;;;;;;29.10;13.70;;;;;;;4.06;74.91;101553.89;106117;1259;67104;-82
2023/12/06 06:32:06;;;;;;;31.80;15.50;;;;;;;4.03;75.16;101555.13;106056;1259;70582;-79
2023/12/06 06:34:40;;;;;;;28.80;14.60;;;;;;;4.07;75.09;101558.27;106085;1258;59650;-80
2023/12/06 06:37:09;;;;;;;32.40;16.40;;;;;;;4.09;75.10;101555.64;106055;1257;59541;-80
2023/12/06 06:39:43;;;;;;;31.90;15.60;;;;;;;4.15;74.65;101556.92;106193;1257;73109;-80
2023/12/06 06:42:17;;;;;;;27.50;14.80;;;;;;;4.18;74.72;101563.41;106033;1260;67713;-80
2023/12/06 06:44:51;;;;;;;30.90;15.30;;;;;;;4.29;74.29;101564.73;106143;1262;71415;-80
2023/12/06 06:47:23;;;;;;;32.20;15.20;;;;;;;4.43;73.69;101567.25;106041;1260;59568;-80
2023/12/06 06:49:58;;;;;;;32.50;14.30;;;;;;;4.39;73.66;101569.25;106185;1258;59619;-80
2023/12/06 06:52:35;;;;;;;30.90;14.70;;;;;;;4.40;73.86;101569.13;105964;1261;72860;-80
2023/12/06 06:55:09;;;;;;;28.90;15.20;;;;;;;4.51;73.65;101568.81;106024;1259;68374;-81
2023/12/06 06:57:37;;;;;;;29.30;15.40;;;;;;;4.60;72.96;101565.25;106267;1262;71089;-80
2023/12/06 07:00:13;;;;;;;27.20;13.60;;;;;;;4.57;73.27;101563.35;106327;1257;59733;-81
2023/12/06 07:02:47;;;;;;;27.50;13.60;;;;;;;4.68;73.14;101569.52;106061;1264;59545;-80
2023/12/06 07:05:21;;;;;;;37.20;16.20;;;;;;;4.79;72.76;101571.53;106186;1257;71078;-81
2023/12/06 07:07:49;;;;;;;31.10;14.40;;;;;;;4.81;72.62;101567.23;106181;1256;67319;-80
2023/12/06 07:10:23;;;;;;;30.00;14.70;;;;;;;4.75;73.40;101564.88;105987;1257;72669;-81
2023/12/06 07:12:57;;;;;;;31.90;15.20;;;;;;;4.84;73.71;101568.09;106101;1257;59729;-81
2023/12/06 07:15:31;;;;;;;29.00;14.80;;;;;;;4.88;74.24;101564.20;106018;1260;59534;-81
2023/12/06 07:17:59;;;;;;;33.80;15.70;;;;;;;5.00;73.04;101564.56;106053;1256;72873;-81
2023/12/06 07:20:33;;;;;;;31.50;14.60;;;;;;;5.12;72.32;101565.21;106051;1256;68360;-80
2023/12/06 07:23:16;;;;;;;30.50;14.30;;;;;;;5.14;71.58;101571.21;106033;1257;71755;-80
2023/12/06 07:25:51;;;;;;;28.60;13.00;;;;;;;5.18;71.44;101569.18;105952;1261;59768;-81
2023/12/06 07:28:19;;;;;;;28.10;14.20;;;;;;;5.26;70.90;101572.65;106119;1257;59583;-81
2023/12/06 07:30:53;;;;;;;30.00;14.70;;;;;;;4.99;71.52;101577.65;106033;1257;71830;-80
2023/12/06 07:33:26;;;;;;;36.60;16.90;;;;;;;4.68;74.17;101578.98;106143;1257;68552;-80
2023/12/06 07:35:54;;;;;;;26.40;13.10;;;;;;;4.61;75.85;101579.29;106007;1256;72466;-81
2023/12/06 07:38:28;;;;;;;34.90;15.80;;;;;;;4.69;75.68;101580.46;106068;1257;59642;-81
2023/12/06 07:41:02;;;;;;;27.80;13.70;;;;;;;4.74;74.86;101580.20;106238;1257;60008;-81
2023/12/06 07:43:39;;;;;;;28.70;13.60;;;;;;;4.81;74.08;101583.68;105960;1260;73042;-80
2023/12/06 07:46:08;;;;;;;26.10;13.70;;;;;;;4.90;73.25;101582.95;106068;1261;68346;-80
2023/12/06 07:48:42;;;;;;;28.10;13.40;;;;;;;5.03;72.52;101581.06;106004;1260;72748;-80
2023/12/06 07:51:16;;;;;;;27.30;13.30;;;;;;;4.97;72.68;101581.95;106027;1257;59675;-80
2023/12/06 07:53:51;;;;;;;27.10;14.00;;;;;;;4.99;71.76;101582.95;106345;1259;59556;-80
2023/12/06 07:56:19;;;;;;;27.40;14.70;;;;;;;5.06;71.07;101592.34;106165;1257;71765;-81
2023/12/06 07:58:57;;;;;;;25.40;12.40;;;;;;;5.08;70.59;101592.49;106186;1256;68338;-81
2023/12/06 08:01:32;;;;;;;31.10;15.30;;;;;;;5.07;70.48;101588.50;105971;1258;72729;-80
2023/12/06 08:04:06;;;;;;;24.40;12.60;;;;;;;5.08;69.73;101589.41;106173;1261;60006;-80
2023/12/06 08:06:36;;;;;;;26.40;12.10;;;;;;;5.14;69.03;101592.69;106231;1256;59545;-81
2023/12/06 08:09:12;;;;;;;26.20;12.50;;;;;;;5.18;68.94;101588.62;106030;1258;73167;-81
2023/12/06 08:11:48;;;;;;;23.00;11.50;;;;;;;5.24;68.92;101587.17;106157;1256;68937;-80
2023/12/06 08:14:26;;;;;;;22.60;10.90;;;;;;;5.31;67.81;101590.30;106105;1261;72524;-81
2023/12/06 08:16:55;;;;;;;20.80;11.20;;;;;;;5.34;67.70;101587.08;106235;1262;59618;-81
2023/12/06 08:19:31;;;;;;;20.90;10.80;;;;;;;5.30;67.57;101583.85;106141;1260;60080;-81
2023/12/06 08:22:06;;;;;;;27.00;12.00;;;;;;;5.29;68.12;101582.78;105949;1256;71859;-79
2023/12/06 08:24:40;;;;;;;21.10;10.00;;;;;;;5.30;68.47;101583.95;106001;1261;68490;-80
2023/12/06 08:27:10;;;;;;;22.70;10.40;;;;;;;5.35;67.91;101580.52;106045;1258;72688;-80
2023/12/06 16:30:26;;;;;;;21.20;10.40;;;;;;;3.88;61.23;101527.48;106508;1252;74815;-79
2023/12/06 16:33:01;;;;;;;20.90;10.10;;;;;;;3.81;61.40;101530.31;106529;1258;60507;-79
2023/12/06 16:35:35;;;;;;;23.00;10.10;;;;;;;3.78;61.36;101534.20;106565;1254;60928;-79
2023/12/06 16:38:06;;;;;;;20.30;9.50;;;;;;;3.86;61.23;101535.80;106514;1251;76117;-79
2023/12/06 16:40:40;;;;;;;25.50;11.50;;;;;;;3.80;60.77;101538.58;106517;1251;69187;-78
2023/12/06 16:43:13;;;;;;;20.10;9.40;;;;;;;3.75;60.61;101540.58;106802;1254;73696;-79
2023/12/06 16:45:47;;;;;;;19.90;9.50;;;;;;;3.69;61.01;101541.55;106480;1254;61667;-79
2023/12/06 16:48:15;;;;;;;18.90;9.10;;;;;;;3.69;61.34;101541.08;106590;1257;61093;-79
2023/12/06 16:50:49;;;;;;;20.40;9.20;;;;;;;3.51;62.01;101541.35;106532;1254;75928;-78
2023/12/06 16:53:23;;;;;;;19.70;9.10;;;;;;;3.49;62.26;101541.60;106593;1254;69177;-78
2023/12/06 16:55:57;;;;;;;18.30;8.70;;;;;;;3.48;62.19;101544.38;106425;1254;72712;-78
2023/12/06 16:58:25;;;;;;;23.20;10.90;;;;;;;3.38;62.83;101542.28;106322;1255;60576;-78
2023/12/06 17:00:59;;;;;;;18.90;9.50;;;;;;;3.34;62.68;101542.48;106449;1257;62561;-78
2023/12/06 17:03:33;;;;;;;23.10;10.60;;;;;;;3.34;62.73;101543.56;106481;1257;75893;-78
2023/12/06 17:06:08;;;;;;;20.40;9.30;;;;;;;3.37;62.18;101547.81;106754;1251;69520;-78
2023/12/06 17:08:35;;;;;;;20.80;9.90;;;;;;;3.25;62.38;101541.02;106424;1257;74638;-78
2023/12/06 17:11:10;;;;;;;24.00;11.50;;;;;;;3.30;62.73;101543.40;106428;1254;61018;-78
2023/12/06 17:13:43;;;;;;;17.90;8.60;;;;;;;3.36;62.42;101545.80;106512;1253;194041;-79
2023/12/06 17:16:12;;;;;;;23.00;11.30;;;;;;;3.28;62.65;101545.80;106374;1251;73797;-79
2023/12/06 17:18:46;;;;;;;20.70;10.00;;;;;;;3.24;62.84;101546.86;106431;1254;67121;-78
2023/12/06 17:21:21;;;;;;;26.30;10.30;;;;;;;3.19;63.42;101549.10;106453;1253;74967;-78
2023/12/06 17:23:56;;;;;;;22.30;10.10;;;;;;;3.13;63.45;101550.48;106398;1254;60543;-78
2023/12/06 17:26:26;;;;;;;21.30;10.80;;;;;;;3.04;63.59;101554.16;106356;1255;60903;-79
2023/12/06 17:29:11;;;;;;;23.40;10.10;;;;;;;2.98;64.81;101554.23;106504;1254;74576;-78
2023/12/06 17:31:45;;;;;;;20.40;8.90;;;;;;;3.02;65.17;101554.90;106435;1254;69490;-78
2023/12/06 17:34:19;;;;;;;20.00;9.30;;;;;;;3.12;65.36;101560.05;106474;1251;72687;-78
2023/12/06 17:36:47;;;;;;;21.80;10.10;;;;;;;3.08;66.08;101559.42;106593;1254;60424;-78
2023/12/06 17:39:22;;;;;;;19.60;10.20;;;;;;;3.08;66.48;101563.82;106589;1253;62208;-79
2023/12/06 17:41:56;;;;;;;19.80;9.80;;;;;;;3.11;66.35;101563.95;106572;1251;75761;-78
2023/12/06 17:44:30;;;;;;;22.00;9.70;;;;;;;3.19;66.58;101564.68;106671;1255;69595;-78
2023/12/06 17:46:58;;;;;;;20.50;10.00;;;;;;;3.21;66.34;101566.02;106557;1254;72370;-78
2023/12/06 17:49:31;;;;;;;23.10;10.90;;;;;;;3.24;66.00;101564.11;106497;1253;60421;-78
2023/12/06 17:52:05;;;;;;;19.60;9.10;;;;;;;3.24;66.13;101565.95;106630;1257;62119;-78
2023/12/06 17:54:40;;;;;;;26.10;11.40;;;;;;;3.43;65.76;101564.63;106732;1254;74892;-78
2023/12/06 17:57:07;;;;;;;21.70;10.50;;;;;;;3.52;65.22;101573.27;106650;1257;69691;-78
2023/12/06 17:59:41;;;;;;;20.60;9.20;;;;;;;3.60;64.37;101571.48;106629;1254;75014;-79
2023/12/06 18:02:16;;;;;;;23.70;10.50;;;;;;;3.51;64.78;101571.21;106565;1254;60521;-78
2023/12/06 18:04:53;;;;;;;16.20;8.90;;;;;;;3.51;64.54;101570.91;106655;1254;62477;-78
2023/12/06 18:07:21;;;;;;;18.00;8.50;;;;;;;3.51;64.72;101569.98;106592;1258;74893;-78
2023/12/06 18:09:57;;;;;;;20.90;10.30;;;;;;;3.42;64.66;101570.70;106727;1253;70780;-78
2023/12/06 18:12:32;;;;;;;20.20;9.00;;;;;;;3.59;64.06;101573.33;106625;1254;70416;-78
2023/12/06 18:14:59;;;;;;;20.40;9.70;;;;;;;3.65;63.48;101576.52;106667;1255;60415;-79
2023/12/06 18:17:33;;;;;;;24.00;11.10;;;;;;;3.49;64.34;101574.23;106629;1254;61543;-79
2023/12/06 18:20:09;;;;;;;19.20;8.60;;;;;;;3.48;64.62;101578.44;106568;1251;74958;-79
2023/12/06 18:22:43;;;;;;;20.70;9.80;;;;;;;3.53;64.61;101577.61;106613;1254;70448;-78
2023/12/06 18:25:11;;;;;;;55.10;22.80;;;;;;;3.60;64.17;101578.41;106512;1254;74789;-78
2023/12/06 18:27:44;;;;;;;103.20;42.90;;;;;;;3.73;63.59;101577.44;106451;1258;61374;-80
2023/12/06 18:30:19;;;;;;;84.40;32.60;;;;;;;3.85;62.64;101577.65;106440;1251;60939;-79
2023/12/06 18:32:56;;;;;;;121.80;47.90;;;;;;;3.79;62.36;101576.27;106551;1257;75913;-79
2023/12/06 18:35:24;;;;;;;49.90;22.10;;;;;;;3.77;62.31;101580.84;106518;1254;70773;-80
2023/12/06 18:37:58;;;;;;;40.90;18.30;;;;;;;3.73;62.49;101575.32;106609;1254;74427;-80
2023/12/06 18:40:32;;;;;;;44.90;21.00;;;;;;;3.72;62.50;101574.90;106400;1251;61508;-80
2023/12/06 18:43:06;;;;;;;29.30;13.70;;;;;;;3.70;62.13;101580.60;106468;1257;61334;-80
2023/12/06 18:45:33;;;;;;;30.90;15.00;;;;;;;3.60;62.40;101580.65;106938;1251;73173;-80
2023/12/06 18:48:07;;;;;;;31.00;14.40;;;;;;;3.28;63.54;101583.49;106488;1258;69888;-80
2023/12/06 18:50:41;;;;;;;21.80;11.70;;;;;;;3.14;64.00;101580.84;106462;1256;71832;-80
2023/12/06 18:53:15;;;;;;;22.10;10.60;;;;;;;3.15;63.90;101582.08;106601;1254;60374;-80
2023/12/06 18:55:43;;;;;;;19.00;9.10;;;;;;;3.02;64.15;101582.57;106537;1257;60728;-80
2023/12/06 18:58:17;;;;;;;21.50;9.80;;;;;;;3.02;64.42;101586.64;106447;1254;75810;-80
2023/12/06 19:00:51;;;;;;;19.50;9.90;;;;;;;2.99;64.89;101585.40;106313;1253;69423;-80
2023/12/06 19:03:18;;;;;;;19.50;9.90;;;;;;;2.98;64.97;101585.79;106471;1253;74810;-80
2023/12/06 19:05:52;;;;;;;21.80;11.10;;;;;;;2.92;64.65;101587.30;106542;1254;60483;-80
2023/12/06 19:08:26;;;;;;;20.00;10.20;;;;;;;2.90;64.71;101586.80;106532;1257;62010;-80
2023/12/06 19:11:00;;;;;;;20.80;9.20;;;;;;;2.89;64.56;101586.92;106584;1254;73972;-80
2023/12/06 19:13:28;;;;;;;19.90;7.90;;;;;;;2.67;65.99;101587.02;106566;1254;71638;-80
2023/12/06 19:16:03;;;;;;;18.70;8.10;;;;;;;2.79;66.00;101586.79;106663;1257;73587;-80
2023/12/06 19:18:37;;;;;;;16.70;8.70;;;;;;;2.72;66.46;101591.32;106466;1257;61922;-80
2023/12/06 19:21:11;;;;;;;19.20;9.70;;;;;;;2.82;66.27;101592.73;106470;1257;61584;-80
2023/12/06 19:23:39;;;;;;;19.30;9.50;;;;;;;2.91;66.12;101594.08;106489;1252;74881;-80
2023/12/06 19:26:15;;;;;;;16.80;8.40;;;;;;;2.88;66.48;101597.76;106495;1258;71171;-80
2023/12/06 19:28:49;;;;;;;18.10;8.60;;;;;;;2.98;66.40;101596.39;106635;1254;73485;-80
2023/12/06 19:31:23;;;;;;;21.70;8.90;;;;;;;3.08;65.38;101595.10;106572;1256;61832;-80
2023/12/06 19:33:51;;;;;;;22.40;10.90;;;;;;;2.97;65.96;101598.34;106666;1253;62065;-79
2023/12/06 19:36:25;;;;;;;24.80;12.00;;;;;;;2.91;66.41;101598.41;106507;1257;75734;-79
2023/12/06 19:39:00;;;;;;;17.90;9.40;;;;;;;2.98;65.76;101598.31;106638;1253;68378;-79
2023/12/06 19:41:28;;;;;;;22.40;10.60;;;;;;;2.93;65.58;101599.28;106666;1251;73640;-80
2023/12/06 19:43:59;;;;;;;21.90;10.70;;;;;;;2.74;66.47;101604.36;106517;1253;60446;-80
2023/12/06 19:46:33;;;;;;;20.50;9.30;;;;;;;2.74;66.76;101603.33;106594;1251;61060;-79
2023/12/06 19:49:08;;;;;;;23.90;10.80;;;;;;;2.79;66.29;101603.58;106567;1255;75150;-80
2023/12/06 19:51:36;;;;;;;20.10;8.90;;;;;;;2.74;66.08;101606.91;106491;1253;70689;-80
2023/12/06 19:54:10;;;;;;;27.70;12.90;;;;;;;2.74;65.75;101602.45;106531;1254;73098;-79
2023/12/06 19:56:44;;;;;;;17.80;9.30;;;;;;;2.70;65.61;101606.73;106377;1253;63010;-80
2023/12/06 19:59:18;;;;;;;23.40;10.00;;;;;;;2.69;65.58;101606.17;106574;1255;62661;-79
2023/12/06 20:01:46;;;;;;;31.70;13.90;;;;;;;2.67;65.37;101609.61;106625;1253;74921;-80
2023/12/06 20:04:21;;;;;;;43.50;17.50;;;;;;;2.75;64.88;101613.10;106598;1251;69148;-80
2023/12/06 20:06:55;;;;;;;31.30;14.20;;;;;;;2.66;64.38;101616.04;106743;1253;73748;-79
2023/12/06 20:09:29;;;;;;;24.70;11.80;;;;;;;2.57;64.94;101615.98;106475;1254;62039;-79
2023/12/06 20:11:57;;;;;;;20.60;9.60;;;;;;;2.54;65.24;101613.67;106506;1251;60514;-80
2023/12/06 20:14:31;;;;;;;19.20;9.30;;;;;;;2.53;65.22;101617.13;106435;1253;75715;-80
2023/12/06 20:17:05;;;;;;;18.50;9.30;;;;;;;2.59;65.03;101614.45;106510;1251;68388;-79
2023/12/06 20:19:39;;;;;;;22.90;9.80;;;;;;;2.64;64.97;101612.95;106518;1254;72707;-80
2023/12/06 20:22:07;;;;;;;21.20;10.40;;;;;;;2.59;64.56;101615.98;106410;1254;61607;-80
2023/12/06 20:24:45;;;;;;;19.90;9.80;;;;;;;2.60;64.28;101610.52;106384;1253;62364;-80
2023/12/06 20:27:18;;;;;;;23.00;10.40;;;;;;;2.65;63.45;101610.56;106320;1254;74718;-79
